sensor_id;sensor_type;location;lat;lon;timestamp;P1;durP1;ratioP1;P2;durP2;ratioP2
83558;SDS011;73527;47.882;7.718;2024-02-21T00:00:21;4.15;;;2.10;;
83558;SDS011;73527;47.882;7.718;2024-02-21T00:02:47;5.82;;;2.30;;
83558;SDS011;73527;47.882;7.718;2024-02-21T00:05:12;2.85;;;1.90;;
83558;SDS011;73527;47.882;7.718;2024-02-21T00:07:38;3.95;;;1.90;;
83558;SDS011;73527;47.882;7.718;2024-02-21T00:10:03;5.82;;;2.00;;
83558;SDS011;73527;47.882;7.718;2024-02-21T00:12:29;10.35;;;2.38;;
83558;SDS011;73527;47.882;7.718;2024-02-21T00:14:54;3.70;;;1.73;;
83558;SDS011;73527;47.882;7.718;2024-02-21T00:17:19;5.68;;;2.22;;
83558;SDS011;73527;47.882;7.718;2024-02-21T00:19:45;4.38;;;1.83;;
83558;SDS011;73527;47.882;7.718;2024-02-21T00:22:10;3.88;;;1.73;;
83558;SDS011;73527;47.882;7.718;2024-02-21T00:24:35;7.28;;;2.70;;
83558;SDS011;73527;47.882;7.718;2024-02-21T00:27:00;5.93;;;2.30;;
83558;SDS011;73527;47.882;7.718;2024-02-21T00:29:26;5.88;;;2.00;;
83558;SDS011;73527;47.882;7.718;2024-02-21T00:34:17;3.58;;;2.05;;
83558;SDS011;73527;47.882;7.718;2024-02-21T00:36:43;3.60;;;2.00;;
83558;SDS011;73527;47.882;7.718;2024-02-21T00:39:08;5.20;;;1.95;;
83558;SDS011;73527;47.882;7.718;2024-02-21T00:41:34;6.38;;;2.30;;
83558;SDS011;73527;47.882;7.718;2024-02-21T00:43:59;4.97;;;2.15;;
83558;SDS011;73527;47.882;7.718;2024-02-21T00:46:24;7.20;;;2.47;;
83558;SDS011;73527;47.882;7.718;2024-02-21T00:48:49;5.53;;;1.98;;
83558;SDS011;73527;47.882;7.718;2024-02-21T00:51:15;3.00;;;1.50;;
83558;SDS011;73527;47.882;7.718;2024-02-21T00:53:42;3.97;;;1.92;;
83558;SDS011;73527;47.882;7.718;2024-02-21T00:56:07;5.78;;;2.13;;
83558;SDS011;73527;47.882;7.718;2024-02-21T00:58:33;6.13;;;2.20;;
83558;SDS011;73527;47.882;7.718;2024-02-21T01:00:58;4.80;;;2.08;;
83558;SDS011;73527;47.882;7.718;2024-02-21T01:03:23;4.35;;;2.03;;
83558;SDS011;73527;47.882;7.718;2024-02-21T01:05:48;5.03;;;2.42;;
83558;SDS011;73527;47.882;7.718;2024-02-21T01:08:14;4.90;;;2.20;;
83558;SDS011;73527;47.882;7.718;2024-02-21T01:10:39;7.00;;;2.13;;
83558;SDS011;73527;47.882;7.718;2024-02-21T01:13:04;5.70;;;1.98;;
83558;SDS011;73527;47.882;7.718;2024-02-21T01:15:30;5.43;;;2.10;;
83558;SDS011;73527;47.882;7.718;2024-02-21T01:17:56;8.90;;;2.28;;
83558;SDS011;73527;47.882;7.718;2024-02-21T01:20:21;4.78;;;1.55;;
83558;SDS011;73527;47.882;7.718;2024-02-21T01:22:46;6.95;;;1.67;;
83558;SDS011;73527;47.882;7.718;2024-02-21T01:25:12;2.95;;;1.55;;
83558;SDS011;73527;47.882;7.718;2024-02-21T01:27:37;4.55;;;1.90;;
83558;SDS011;73527;47.882;7.718;2024-02-21T01:30:03;7.50;;;2.20;;
83558;SDS011;73527;47.882;7.718;2024-02-21T01:32:29;4.55;;;1.75;;
83558;SDS011;73527;47.882;7.718;2024-02-21T01:34:54;3.58;;;1.90;;
83558;SDS011;73527;47.882;7.718;2024-02-21T01:37:19;3.15;;;1.60;;
83558;SDS011;73527;47.882;7.718;2024-02-21T01:39:45;3.88;;;1.80;;
83558;SDS011;73527;47.882;7.718;2024-02-21T01:42:10;4.90;;;1.65;;
83558;SDS011;73527;47.882;7.718;2024-02-21T01:44:35;2.22;;;1.42;;
83558;SDS011;73527;47.882;7.718;2024-02-21T01:47:03;5.53;;;2.25;;
83558;SDS011;73527;47.882;7.718;2024-02-21T01:49:28;6.03;;;1.50;;
83558;SDS011;73527;47.882;7.718;2024-02-21T01:51:54;4.10;;;1.60;;
83558;SDS011;73527;47.882;7.718;2024-02-21T01:54:20;3.35;;;1.58;;
83558;SDS011;73527;47.882;7.718;2024-02-21T01:56:46;4.10;;;1.65;;
83558;SDS011;73527;47.882;7.718;2024-02-21T01:59:12;3.95;;;1.80;;
83558;SDS011;73527;47.882;7.718;2024-02-21T02:01:40;4.28;;;1.30;;
83558;SDS011;73527;47.882;7.718;2024-02-21T02:04:06;7.95;;;2.38;;
83558;SDS011;73527;47.882;7.718;2024-02-21T02:06:32;7.07;;;1.98;;
83558;SDS011;73527;47.882;7.718;2024-02-21T02:08:57;3.38;;;1.38;;
83558;SDS011;73527;47.882;7.718;2024-02-21T02:11:23;6.47;;;1.90;;
83558;SDS011;73527;47.882;7.718;2024-02-21T02:13:48;4.72;;;2.05;;
83558;SDS011;73527;47.882;7.718;2024-02-21T02:16:14;3.47;;;1.95;;
83558;SDS011;73527;47.882;7.718;2024-02-21T02:18:39;3.30;;;1.55;;
83558;SDS011;73527;47.882;7.718;2024-02-21T02:21:05;4.80;;;2.05;;
83558;SDS011;73527;47.882;7.718;2024-02-21T02:23:35;6.28;;;1.60;;
83558;SDS011;73527;47.882;7.718;2024-02-21T02:26:01;4.22;;;2.08;;
83558;SDS011;73527;47.882;7.718;2024-02-21T02:28:26;5.60;;;1.80;;
83558;SDS011;73527;47.882;7.718;2024-02-21T02:30:52;4.25;;;1.90;;
83558;SDS011;73527;47.882;7.718;2024-02-21T02:33:18;5.80;;;1.95;;
83558;SDS011;73527;47.882;7.718;2024-02-21T02:35:43;4.38;;;1.80;;
83558;SDS011;73527;47.882;7.718;2024-02-21T02:38:09;5.55;;;1.65;;
83558;SDS011;73527;47.882;7.718;2024-02-21T02:40:37;5.47;;;1.48;;
83558;SDS011;73527;47.882;7.718;2024-02-21T02:43:03;3.22;;;1.83;;
83558;SDS011;73527;47.882;7.718;2024-02-21T02:45:29;2.63;;;1.63;;
83558;SDS011;73527;47.882;7.718;2024-02-21T02:47:54;4.60;;;2.25;;
83558;SDS011;73527;47.882;7.718;2024-02-21T02:50:21;5.18;;;1.80;;
83558;SDS011;73527;47.882;7.718;2024-02-21T02:52:51;3.03;;;1.27;;
83558;SDS011;73527;47.882;7.718;2024-02-21T02:55:16;4.28;;;1.70;;
83558;SDS011;73527;47.882;7.718;2024-02-21T02:57:42;5.05;;;1.52;;
83558;SDS011;73527;47.882;7.718;2024-02-21T03:00:08;5.95;;;1.75;;
83558;SDS011;73527;47.882;7.718;2024-02-21T03:02:37;2.97;;;1.27;;
83558;SDS011;73527;47.882;7.718;2024-02-21T03:05:03;3.10;;;1.40;;
83558;SDS011;73527;47.882;7.718;2024-02-21T03:07:40;4.55;;;1.98;;
83558;SDS011;73527;47.882;7.718;2024-02-21T03:10:06;3.50;;;1.60;;
83558;SDS011;73527;47.882;7.718;2024-02-21T03:12:31;2.70;;;1.50;;
83558;SDS011;73527;47.882;7.718;2024-02-21T03:14:57;8.00;;;2.38;;
83558;SDS011;73527;47.882;7.718;2024-02-21T03:17:22;4.63;;;1.85;;
83558;SDS011;73527;47.882;7.718;2024-02-21T03:19:48;2.67;;;1.58;;
83558;SDS011;73527;47.882;7.718;2024-02-21T03:22:15;6.95;;;1.88;;
83558;SDS011;73527;47.882;7.718;2024-02-21T03:24:41;3.35;;;1.42;;
83558;SDS011;73527;47.882;7.718;2024-02-21T03:29:32;4.73;;;1.57;;
83558;SDS011;73527;47.882;7.718;2024-02-21T03:31:57;2.83;;;1.80;;
83558;SDS011;73527;47.882;7.718;2024-02-21T03:34:22;3.28;;;2.20;;
83558;SDS011;73527;47.882;7.718;2024-02-21T03:36:48;4.65;;;1.73;;
83558;SDS011;73527;47.882;7.718;2024-02-21T03:39:13;7.15;;;1.88;;
83558;SDS011;73527;47.882;7.718;2024-02-21T03:41:38;5.32;;;2.03;;
83558;SDS011;73527;47.882;7.718;2024-02-21T03:44:04;3.58;;;1.20;;
83558;SDS011;73527;47.882;7.718;2024-02-21T03:46:30;3.38;;;1.60;;
83558;SDS011;73527;47.882;7.718;2024-02-21T03:48:55;7.45;;;1.45;;
83558;SDS011;73527;47.882;7.718;2024-02-21T03:51:21;4.68;;;1.83;;
83558;SDS011;73527;47.882;7.718;2024-02-21T03:53:46;3.72;;;1.70;;
83558;SDS011;73527;47.882;7.718;2024-02-21T03:56:11;3.45;;;1.50;;
83558;SDS011;73527;47.882;7.718;2024-02-21T03:58:37;3.25;;;1.52;;
83558;SDS011;73527;47.882;7.718;2024-02-21T04:01:02;3.22;;;1.50;;
83558;SDS011;73527;47.882;7.718;2024-02-21T04:03:28;5.95;;;2.38;;
83558;SDS011;73527;47.882;7.718;2024-02-21T04:05:54;4.88;;;2.00;;
83558;SDS011;73527;47.882;7.718;2024-02-21T04:08:19;6.80;;;1.70;;
83558;SDS011;73527;47.882;7.718;2024-02-21T04:10:45;6.45;;;1.80;;
83558;SDS011;73527;47.882;7.718;2024-02-21T04:13:10;5.72;;;1.95;;
83558;SDS011;73527;47.882;7.718;2024-02-21T04:15:35;5.32;;;1.77;;
83558;SDS011;73527;47.882;7.718;2024-02-21T04:18:01;5.10;;;2.17;;
83558;SDS011;73527;47.882;7.718;2024-02-21T04:20:28;5.68;;;1.65;;
83558;SDS011;73527;47.882;7.718;2024-02-21T04:22:54;5.22;;;1.98;;
83558;SDS011;73527;47.882;7.718;2024-02-21T04:25:19;2.83;;;1.10;;
83558;SDS011;73527;47.882;7.718;2024-02-21T04:27:45;5.72;;;2.35;;
83558;SDS011;73527;47.882;7.718;2024-02-21T04:30:10;2.95;;;1.52;;
83558;SDS011;73527;47.882;7.718;2024-02-21T04:32:36;3.22;;;1.58;;
83558;SDS011;73527;47.882;7.718;2024-02-21T04:35:01;3.08;;;1.83;;
83558;SDS011;73527;47.882;7.718;2024-02-21T04:37:26;2.90;;;1.48;;
83558;SDS011;73527;47.882;7.718;2024-02-21T04:39:52;2.72;;;1.40;;
83558;SDS011;73527;47.882;7.718;2024-02-21T04:42:17;6.80;;;1.80;;
83558;SDS011;73527;47.882;7.718;2024-02-21T04:44:42;3.60;;;1.70;;
83558;SDS011;73527;47.882;7.718;2024-02-21T04:47:08;6.45;;;2.05;;
83558;SDS011;73527;47.882;7.718;2024-02-21T04:49:33;5.45;;;1.98;;
83558;SDS011;73527;47.882;7.718;2024-02-21T04:51:59;3.83;;;1.83;;
83558;SDS011;73527;47.882;7.718;2024-02-21T04:54:25;4.80;;;1.95;;
83558;SDS011;73527;47.882;7.718;2024-02-21T04:56:50;4.10;;;1.60;;
83558;SDS011;73527;47.882;7.718;2024-02-21T04:59:16;7.78;;;2.15;;
83558;SDS011;73527;47.882;7.718;2024-02-21T05:01:42;7.22;;;2.08;;
83558;SDS011;73527;47.882;7.718;2024-02-21T05:04:07;4.28;;;1.98;;
83558;SDS011;73527;47.882;7.718;2024-02-21T05:06:39;5.82;;;1.75;;
83558;SDS011;73527;47.882;7.718;2024-02-21T05:09:06;4.78;;;1.88;;
83558;SDS011;73527;47.882;7.718;2024-02-21T05:13:57;5.37;;;1.83;;
83558;SDS011;73527;47.882;7.718;2024-02-21T05:16:22;4.03;;;1.92;;
83558;SDS011;73527;47.882;7.718;2024-02-21T05:18:47;6.50;;;2.20;;
83558;SDS011;73527;47.882;7.718;2024-02-21T05:21:13;5.75;;;2.92;;
83558;SDS011;73527;47.882;7.718;2024-02-21T05:23:38;8.40;;;2.35;;
83558;SDS011;73527;47.882;7.718;2024-02-21T05:26:05;6.30;;;2.63;;
83558;SDS011;73527;47.882;7.718;2024-02-21T05:28:31;9.60;;;3.03;;
83558;SDS011;73527;47.882;7.718;2024-02-21T05:30:56;6.63;;;2.33;;
83558;SDS011;73527;47.882;7.718;2024-02-21T05:33:21;3.08;;;1.70;;
83558;SDS011;73527;47.882;7.718;2024-02-21T05:35:47;4.53;;;2.25;;
83558;SDS011;73527;47.882;7.718;2024-02-21T05:38:15;5.60;;;1.80;;
83558;SDS011;73527;47.882;7.718;2024-02-21T05:40:41;4.53;;;1.85;;
83558;SDS011;73527;47.882;7.718;2024-02-21T05:43:09;3.70;;;2.20;;
83558;SDS011;73527;47.882;7.718;2024-02-21T05:45:35;4.70;;;2.10;;
83558;SDS011;73527;47.882;7.718;2024-02-21T05:48:01;4.55;;;2.33;;
83558;SDS011;73527;47.882;7.718;2024-02-21T05:50:27;7.30;;;1.80;;
83558;SDS011;73527;47.882;7.718;2024-02-21T05:52:56;5.38;;;2.03;;
83558;SDS011;73527;47.882;7.718;2024-02-21T05:55:22;8.73;;;2.85;;
83558;SDS011;73527;47.882;7.718;2024-02-21T05:57:47;6.82;;;1.70;;
83558;SDS011;73527;47.882;7.718;2024-02-21T06:02:39;10.52;;;2.53;;
83558;SDS011;73527;47.882;7.718;2024-02-21T06:05:05;6.82;;;2.05;;
83558;SDS011;73527;47.882;7.718;2024-02-21T06:07:32;3.17;;;1.90;;
83558;SDS011;73527;47.882;7.718;2024-02-21T06:09:58;4.47;;;2.55;;
83558;SDS011;73527;47.882;7.718;2024-02-21T06:12:23;3.22;;;2.50;;
83558;SDS011;73527;47.882;7.718;2024-02-21T06:14:49;3.83;;;2.13;;
83558;SDS011;73527;47.882;7.718;2024-02-21T06:17:14;5.65;;;2.03;;
83558;SDS011;73527;47.882;7.718;2024-02-21T06:19:40;6.50;;;3.05;;
83558;SDS011;73527;47.882;7.718;2024-02-21T06:22:07;4.80;;;2.53;;
83558;SDS011;73527;47.882;7.718;2024-02-21T06:24:33;6.47;;;3.08;;
83558;SDS011;73527;47.882;7.718;2024-02-21T06:26:59;7.78;;;2.53;;
83558;SDS011;73527;47.882;7.718;2024-02-21T06:29:24;6.63;;;2.80;;
83558;SDS011;73527;47.882;7.718;2024-02-21T06:31:50;6.80;;;2.72;;
83558;SDS011;73527;47.882;7.718;2024-02-21T06:34:15;5.60;;;2.72;;
83558;SDS011;73527;47.882;7.718;2024-02-21T06:36:40;3.97;;;2.58;;
83558;SDS011;73527;47.882;7.718;2024-02-21T06:39:06;4.82;;;2.40;;
83558;SDS011;73527;47.882;7.718;2024-02-21T06:43:59;6.40;;;2.40;;
83558;SDS011;73527;47.882;7.718;2024-02-21T06:46:25;7.90;;;2.78;;
83558;SDS011;73527;47.882;7.718;2024-02-21T06:48:51;6.60;;;2.70;;
83558;SDS011;73527;47.882;7.718;2024-02-21T06:51:17;6.10;;;2.40;;
83558;SDS011;73527;47.882;7.718;2024-02-21T06:53:43;4.75;;;2.45;;
83558;SDS011;73527;47.882;7.718;2024-02-21T06:56:09;7.25;;;3.88;;
83558;SDS011;73527;47.882;7.718;2024-02-21T06:58:35;4.10;;;2.30;;
83558;SDS011;73527;47.882;7.718;2024-02-21T07:01:00;5.60;;;2.50;;
83558;SDS011;73527;47.882;7.718;2024-02-21T07:03:26;8.35;;;3.20;;
83558;SDS011;73527;47.882;7.718;2024-02-21T07:05:52;6.53;;;2.28;;
83558;SDS011;73527;47.882;7.718;2024-02-21T07:08:17;5.72;;;1.90;;
83558;SDS011;73527;47.882;7.718;2024-02-21T07:10:42;7.28;;;3.03;;
83558;SDS011;73527;47.882;7.718;2024-02-21T07:13:08;7.57;;;2.13;;
83558;SDS011;73527;47.882;7.718;2024-02-21T07:15:33;6.05;;;2.50;;
83558;SDS011;73527;47.882;7.718;2024-02-21T07:17:59;4.68;;;2.20;;
83558;SDS011;73527;47.882;7.718;2024-02-21T07:20:24;4.28;;;2.40;;
83558;SDS011;73527;47.882;7.718;2024-02-21T07:22:50;4.22;;;2.22;;
83558;SDS011;73527;47.882;7.718;2024-02-21T07:25:15;3.97;;;2.10;;
83558;SDS011;73527;47.882;7.718;2024-02-21T07:27:42;6.90;;;2.28;;
83558;SDS011;73527;47.882;7.718;2024-02-21T07:30:08;6.07;;;3.13;;
83558;SDS011;73527;47.882;7.718;2024-02-21T07:32:34;7.00;;;2.00;;
83558;SDS011;73527;47.882;7.718;2024-02-21T07:34:59;9.65;;;3.58;;
83558;SDS011;73527;47.882;7.718;2024-02-21T07:37:24;6.95;;;2.45;;
83558;SDS011;73527;47.882;7.718;2024-02-21T07:39:50;7.65;;;2.30;;
83558;SDS011;73527;47.882;7.718;2024-02-21T07:42:15;5.07;;;2.42;;
83558;SDS011;73527;47.882;7.718;2024-02-21T07:44:41;5.25;;;1.92;;
83558;SDS011;73527;47.882;7.718;2024-02-21T07:47:06;5.72;;;2.13;;
83558;SDS011;73527;47.882;7.718;2024-02-21T07:49:32;6.43;;;2.58;;
83558;SDS011;73527;47.882;7.718;2024-02-21T07:51:57;5.40;;;2.60;;
83558;SDS011;73527;47.882;7.718;2024-02-21T07:54:25;5.65;;;2.70;;
83558;SDS011;73527;47.882;7.718;2024-02-21T07:56:51;9.48;;;3.10;;
83558;SDS011;73527;47.882;7.718;2024-02-21T07:59:16;4.65;;;2.53;;
83558;SDS011;73527;47.882;7.718;2024-02-21T08:01:42;7.05;;;2.83;;
83558;SDS011;73527;47.882;7.718;2024-02-21T08:04:07;5.30;;;2.72;;
83558;SDS011;73527;47.882;7.718;2024-02-21T08:06:33;4.63;;;2.80;;
83558;SDS011;73527;47.882;7.718;2024-02-21T08:08:58;5.38;;;2.30;;
83558;SDS011;73527;47.882;7.718;2024-02-21T08:11:25;6.68;;;2.70;;
83558;SDS011;73527;47.882;7.718;2024-02-21T08:13:51;6.57;;;2.95;;
83558;SDS011;73527;47.882;7.718;2024-02-21T08:16:16;9.63;;;3.10;;
83558;SDS011;73527;47.882;7.718;2024-02-21T08:18:43;10.15;;;3.67;;
83558;SDS011;73527;47.882;7.718;2024-02-21T08:21:09;6.85;;;3.13;;
83558;SDS011;73527;47.882;7.718;2024-02-21T08:23:34;7.28;;;3.00;;
83558;SDS011;73527;47.882;7.718;2024-02-21T08:26:02;7.55;;;3.55;;
83558;SDS011;73527;47.882;7.718;2024-02-21T08:28:28;8.20;;;3.03;;
83558;SDS011;73527;47.882;7.718;2024-02-21T08:30:54;6.18;;;3.22;;
83558;SDS011;73527;47.882;7.718;2024-02-21T08:33:19;6.20;;;3.20;;
83558;SDS011;73527;47.882;7.718;2024-02-21T08:35:49;5.07;;;3.35;;
83558;SDS011;73527;47.882;7.718;2024-02-21T08:38:14;8.27;;;3.28;;
83558;SDS011;73527;47.882;7.718;2024-02-21T08:40:40;4.90;;;3.33;;
83558;SDS011;73527;47.882;7.718;2024-02-21T08:43:05;7.18;;;3.13;;
83558;SDS011;73527;47.882;7.718;2024-02-21T08:45:30;6.72;;;2.70;;
83558;SDS011;73527;47.882;7.718;2024-02-21T08:47:56;5.15;;;2.83;;
83558;SDS011;73527;47.882;7.718;2024-02-21T08:50:21;5.15;;;2.95;;
83558;SDS011;73527;47.882;7.718;2024-02-21T08:52:46;6.72;;;3.08;;
83558;SDS011;73527;47.882;7.718;2024-02-21T08:55:12;7.10;;;3.00;;
83558;SDS011;73527;47.882;7.718;2024-02-21T08:57:37;3.58;;;2.65;;
83558;SDS011;73527;47.882;7.718;2024-02-21T09:00:05;10.38;;;3.70;;
83558;SDS011;73527;47.882;7.718;2024-02-21T09:02:35;4.68;;;2.80;;
83558;SDS011;73527;47.882;7.718;2024-02-21T09:05:05;5.32;;;3.22;;
83558;SDS011;73527;47.882;7.718;2024-02-21T09:07:30;4.20;;;2.83;;
83558;SDS011;73527;47.882;7.718;2024-02-21T09:09:56;6.22;;;2.88;;
83558;SDS011;73527;47.882;7.718;2024-02-21T09:12:21;5.82;;;2.97;;
83558;SDS011;73527;47.882;7.718;2024-02-21T09:14:47;8.10;;;2.55;;
83558;SDS011;73527;47.882;7.718;2024-02-21T09:17:15;5.70;;;2.60;;
83558;SDS011;73527;47.882;7.718;2024-02-21T09:19:45;8.68;;;3.35;;
83558;SDS011;73527;47.882;7.718;2024-02-21T09:22:11;4.35;;;2.95;;
83558;SDS011;73527;47.882;7.718;2024-02-21T09:24:36;6.07;;;3.13;;
83558;SDS011;73527;47.882;7.718;2024-02-21T09:29:27;6.13;;;2.97;;
83558;SDS011;73527;47.882;7.718;2024-02-21T09:31:52;8.35;;;2.92;;
83558;SDS011;73527;47.882;7.718;2024-02-21T09:36:43;9.20;;;3.70;;
83558;SDS011;73527;47.882;7.718;2024-02-21T09:39:09;5.10;;;3.10;;
83558;SDS011;73527;47.882;7.718;2024-02-21T09:41:36;8.20;;;3.38;;
83558;SDS011;73527;47.882;7.718;2024-02-21T09:44:07;4.53;;;2.80;;
83558;SDS011;73527;47.882;7.718;2024-02-21T09:52:03;7.25;;;2.97;;
83558;SDS011;73527;47.882;7.718;2024-02-21T09:54:30;6.88;;;3.13;;
83558;SDS011;73527;47.882;7.718;2024-02-21T09:57:02;8.55;;;3.58;;
83558;SDS011;73527;47.882;7.718;2024-02-21T09:59:28;5.80;;;3.45;;
83558;SDS011;73527;47.882;7.718;2024-02-21T10:01:56;7.63;;;3.60;;
83558;SDS011;73527;47.882;7.718;2024-02-21T10:06:47;7.18;;;3.10;;
83558;SDS011;73527;47.882;7.718;2024-02-21T10:11:53;6.90;;;3.03;;
83558;SDS011;73527;47.882;7.718;2024-02-21T10:16:45;4.40;;;2.45;;
83558;SDS011;73527;47.882;7.718;2024-02-21T10:19:16;7.53;;;2.88;;
83558;SDS011;73527;47.882;7.718;2024-02-21T10:21:42;5.10;;;3.08;;
83558;SDS011;73527;47.882;7.718;2024-02-21T10:26:33;7.37;;;2.93;;
83558;SDS011;73527;47.882;7.718;2024-02-21T10:28:58;10.52;;;3.05;;
83558;SDS011;73527;47.882;7.718;2024-02-21T10:31:26;7.43;;;3.10;;
83558;SDS011;73527;47.882;7.718;2024-02-21T10:33:59;7.13;;;2.95;;
83558;SDS011;73527;47.882;7.718;2024-02-21T10:36:28;5.68;;;3.05;;
83558;SDS011;73527;47.882;7.718;2024-02-21T10:41:20;8.35;;;3.13;;
83558;SDS011;73527;47.882;7.718;2024-02-21T10:43:49;6.95;;;3.25;;
83558;SDS011;73527;47.882;7.718;2024-02-21T10:46:19;6.80;;;2.97;;
83558;SDS011;73527;47.882;7.718;2024-02-21T10:48:46;9.48;;;3.10;;
83558;SDS011;73527;47.882;7.718;2024-02-21T10:51:17;6.55;;;3.47;;
83558;SDS011;73527;47.882;7.718;2024-02-21T10:56:22;9.52;;;3.42;;
83558;SDS011;73527;47.882;7.718;2024-02-21T10:58:49;4.20;;;2.65;;
83558;SDS011;73527;47.882;7.718;2024-02-21T11:01:15;8.57;;;3.50;;
83558;SDS011;73527;47.882;7.718;2024-02-21T11:03:43;5.00;;;2.75;;
83558;SDS011;73527;47.882;7.718;2024-02-21T11:06:11;7.22;;;3.38;;
83558;SDS011;73527;47.882;7.718;2024-02-21T11:08:38;5.88;;;2.67;;
83558;SDS011;73527;47.882;7.718;2024-02-21T11:13:30;4.57;;;2.50;;
83558;SDS011;73527;47.882;7.718;2024-02-21T11:16:06;4.18;;;2.00;;
83558;SDS011;73527;47.882;7.718;2024-02-21T11:18:33;2.90;;;1.52;;
83558;SDS011;73527;47.882;7.718;2024-02-21T11:23:24;2.40;;;1.00;;
83558;SDS011;73527;47.882;7.718;2024-02-21T11:25:52;2.10;;;0.98;;
83558;SDS011;73527;47.882;7.718;2024-02-21T11:28:29;2.38;;;1.00;;
83558;SDS011;73527;47.882;7.718;2024-02-21T11:33:31;1.85;;;1.33;;
83558;SDS011;73527;47.882;7.718;2024-02-21T11:35:58;1.70;;;1.02;;
83558;SDS011;73527;47.882;7.718;2024-02-21T11:40:50;2.63;;;0.93;;
83558;SDS011;73527;47.882;7.718;2024-02-21T11:45:41;5.18;;;1.60;;
83558;SDS011;73527;47.882;7.718;2024-02-21T11:50:33;3.63;;;1.23;;
83558;SDS011;73527;47.882;7.718;2024-02-21T11:55:29;1.97;;;0.70;;
83558;SDS011;73527;47.882;7.718;2024-02-21T12:00:20;3.20;;;0.70;;
83558;SDS011;73527;47.882;7.718;2024-02-21T12:05:11;1.70;;;0.90;;
83558;SDS011;73527;47.882;7.718;2024-02-21T12:10:11;1.27;;;0.77;;
83558;SDS011;73527;47.882;7.718;2024-02-21T12:12:38;2.05;;;0.68;;
83558;SDS011;73527;47.882;7.718;2024-02-21T12:15:04;2.80;;;1.00;;
83558;SDS011;73527;47.882;7.718;2024-02-21T12:17:32;2.00;;;0.77;;
83558;SDS011;73527;47.882;7.718;2024-02-21T12:19:58;0.93;;;0.80;;
83558;SDS011;73527;47.882;7.718;2024-02-21T12:24:50;1.42;;;1.17;;
83558;SDS011;73527;47.882;7.718;2024-02-21T12:29:40;2.27;;;1.07;;
83558;SDS011;73527;47.882;7.718;2024-02-21T12:34:31;1.87;;;1.03;;
83558;SDS011;73527;47.882;7.718;2024-02-21T12:37:01;0.82;;;0.75;;
83558;SDS011;73527;47.882;7.718;2024-02-21T12:39:28;2.78;;;1.02;;
83558;SDS011;73527;47.882;7.718;2024-02-21T12:44:19;3.95;;;1.33;;
83558;SDS011;73527;47.882;7.718;2024-02-21T12:49:10;3.50;;;1.10;;
83558;SDS011;73527;47.882;7.718;2024-02-21T12:54:01;1.55;;;0.90;;
83558;SDS011;73527;47.882;7.718;2024-02-21T12:56:29;1.63;;;1.00;;
83558;SDS011;73527;47.882;7.718;2024-02-21T12:58:56;1.13;;;0.90;;
83558;SDS011;73527;47.882;7.718;2024-02-21T13:03:47;1.90;;;1.30;;
83558;SDS011;73527;47.882;7.718;2024-02-21T13:06:12;4.07;;;1.63;;
83558;SDS011;73527;47.882;7.718;2024-02-21T13:11:03;3.37;;;1.53;;
83558;SDS011;73527;47.882;7.718;2024-02-21T13:15:54;2.72;;;1.50;;
83558;SDS011;73527;47.882;7.718;2024-02-21T13:20:45;4.37;;;1.40;;
83558;SDS011;73527;47.882;7.718;2024-02-21T13:25:35;3.70;;;2.00;;
83558;SDS011;73527;47.882;7.718;2024-02-21T13:28:01;3.42;;;1.52;;
83558;SDS011;73527;47.882;7.718;2024-02-21T13:30:28;3.13;;;1.92;;
83558;SDS011;73527;47.882;7.718;2024-02-21T13:35:19;4.38;;;1.70;;
83558;SDS011;73527;47.882;7.718;2024-02-21T13:40:11;4.72;;;1.75;;
83558;SDS011;73527;47.882;7.718;2024-02-21T13:45:02;3.40;;;2.17;;
83558;SDS011;73527;47.882;7.718;2024-02-21T13:47:28;3.38;;;1.88;;
83558;SDS011;73527;47.882;7.718;2024-02-21T13:52:20;4.30;;;2.70;;
83558;SDS011;73527;47.882;7.718;2024-02-21T13:57:11;3.03;;;2.00;;
83558;SDS011;73527;47.882;7.718;2024-02-21T14:02:02;3.80;;;2.10;;
83558;SDS011;73527;47.882;7.718;2024-02-21T14:06:55;5.32;;;2.03;;
83558;SDS011;73527;47.882;7.718;2024-02-21T14:11:45;4.23;;;2.23;;
83558;SDS011;73527;47.882;7.718;2024-02-21T14:16:36;2.40;;;1.80;;
83558;SDS011;73527;47.882;7.718;2024-02-21T14:21:27;4.03;;;1.90;;
83558;SDS011;73527;47.882;7.718;2024-02-21T14:23:53;4.70;;;1.95;;
83558;SDS011;73527;47.882;7.718;2024-02-21T14:28:44;2.53;;;1.70;;
83558;SDS011;73527;47.882;7.718;2024-02-21T14:31:11;3.97;;;1.60;;
83558;SDS011;73527;47.882;7.718;2024-02-21T14:36:02;4.38;;;1.80;;
83558;SDS011;73527;47.882;7.718;2024-02-21T14:40:53;3.38;;;2.33;;
83558;SDS011;73527;47.882;7.718;2024-02-21T14:45:46;1.92;;;1.40;;
83558;SDS011;73527;47.882;7.718;2024-02-21T14:48:12;3.08;;;2.00;;
83558;SDS011;73527;47.882;7.718;2024-02-21T14:53:03;6.03;;;2.13;;
83558;SDS011;73527;47.882;7.718;2024-02-21T14:57:53;4.15;;;1.75;;
83558;SDS011;73527;47.882;7.718;2024-02-21T15:02:46;3.60;;;1.80;;
83558;SDS011;73527;47.882;7.718;2024-02-21T15:05:11;3.25;;;1.95;;
83558;SDS011;73527;47.882;7.718;2024-02-21T15:07:37;6.45;;;2.40;;
83558;SDS011;73527;47.882;7.718;2024-02-21T15:12:28;4.93;;;2.38;;
83558;SDS011;73527;47.882;7.718;2024-02-21T15:17:19;4.03;;;2.27;;
83558;SDS011;73527;47.882;7.718;2024-02-21T15:19:44;3.88;;;2.45;;
83558;SDS011;73527;47.882;7.718;2024-02-21T15:24:36;3.38;;;2.72;;
83558;SDS011;73527;47.882;7.718;2024-02-21T15:27:03;3.90;;;2.40;;
83558;SDS011;73527;47.882;7.718;2024-02-21T15:31:54;7.47;;;2.23;;
83558;SDS011;73527;47.882;7.718;2024-02-21T15:36:44;6.17;;;2.70;;
83558;SDS011;73527;47.882;7.718;2024-02-21T15:41:36;4.53;;;2.63;;
83558;SDS011;73527;47.882;7.718;2024-02-21T15:46:29;4.85;;;2.10;;
83558;SDS011;73527;47.882;7.718;2024-02-21T15:48:56;4.60;;;2.53;;
83558;SDS011;73527;47.882;7.718;2024-02-21T15:53:47;3.78;;;1.83;;
83558;SDS011;73527;47.882;7.718;2024-02-21T15:58:39;4.75;;;3.08;;
83558;SDS011;73527;47.882;7.718;2024-02-21T16:03:30;5.93;;;3.28;;
83558;SDS011;73527;47.882;7.718;2024-02-21T16:05:56;9.07;;;4.38;;
83558;SDS011;73527;47.882;7.718;2024-02-21T16:10:47;5.30;;;3.13;;
83558;SDS011;73527;47.882;7.718;2024-02-21T16:13:13;6.13;;;3.13;;
83558;SDS011;73527;47.882;7.718;2024-02-21T16:18:04;5.32;;;2.58;;
83558;SDS011;73527;47.882;7.718;2024-02-21T16:22:55;6.43;;;3.40;;
83558;SDS011;73527;47.882;7.718;2024-02-21T16:25:24;5.68;;;2.80;;
83558;SDS011;73527;47.882;7.718;2024-02-21T16:30:15;4.20;;;2.50;;
83558;SDS011;73527;47.882;7.718;2024-02-21T16:32:42;5.43;;;2.55;;
83558;SDS011;73527;47.882;7.718;2024-02-21T16:35:08;5.13;;;3.47;;
83558;SDS011;73527;47.882;7.718;2024-02-21T16:39:59;4.80;;;3.00;;
83558;SDS011;73527;47.882;7.718;2024-02-21T16:44:49;7.03;;;3.90;;
83558;SDS011;73527;47.882;7.718;2024-02-21T16:49:42;5.13;;;3.45;;
83558;SDS011;73527;47.882;7.718;2024-02-21T16:54:34;5.28;;;3.72;;
83558;SDS011;73527;47.882;7.718;2024-02-21T16:59:25;6.45;;;4.80;;
83558;SDS011;73527;47.882;7.718;2024-02-21T17:04:25;5.55;;;3.95;;
83558;SDS011;73527;47.882;7.718;2024-02-21T17:06:53;7.30;;;4.32;;
83558;SDS011;73527;47.882;7.718;2024-02-21T17:11:44;8.38;;;4.20;;
83558;SDS011;73527;47.882;7.718;2024-02-21T17:14:10;6.18;;;4.40;;
83558;SDS011;73527;47.882;7.718;2024-02-21T17:16:35;4.78;;;3.30;;
83558;SDS011;73527;47.882;7.718;2024-02-21T17:19:02;5.57;;;2.70;;
83558;SDS011;73527;47.882;7.718;2024-02-21T17:21:30;4.25;;;2.90;;
83558;SDS011;73527;47.882;7.718;2024-02-21T17:26:20;3.53;;;2.00;;
83558;SDS011;73527;47.882;7.718;2024-02-21T17:28:48;3.45;;;2.00;;
83558;SDS011;73527;47.882;7.718;2024-02-21T17:33:39;4.60;;;2.38;;
83558;SDS011;73527;47.882;7.718;2024-02-21T17:38:29;4.50;;;2.33;;
83558;SDS011;73527;47.882;7.718;2024-02-21T17:43:20;3.55;;;2.38;;
83558;SDS011;73527;47.882;7.718;2024-02-21T17:48:12;2.67;;;1.50;;
83558;SDS011;73527;47.882;7.718;2024-02-21T17:53:04;3.38;;;1.77;;
83558;SDS011;73527;47.882;7.718;2024-02-21T17:57:54;3.75;;;2.40;;